Flight Track Log - Related Links

Times and Time Zones

All times are in EDT time to prevent confusion due to time zone crossing. See the N146WB flight status page for this flight to view local times or setup timezone preferences in your user account.

Time Position Orientation Groundspeed Altitude Reporting Facility
EDT Latitude Longitude Course Direction KTS MPH feet Rate Location/Type
Mon 12:30:14 PM 42.6156 -92.4344 341° North 102 117 3,800  Level Chicago Center
Mon 12:31:16 PM 42.6478 -92.4414 351° North 108 124 4,500 412 Climbing Chicago Center
Mon 12:32:25 PM 42.6953 -92.4564 347° North 123 142 4,700 46 Climbing Minneapolis Center
Mon 12:33:27 PM 42.7336 -92.4767 339° North 135 155 4,600 -48 Descending Minneapolis Center
Mon 12:34:00 PM 42.5674 -92.4052 341° North  Level Estimated
Mon 12:34:29 PM 42.7722 -92.4964 339° North 143 165 4,600  Level Minneapolis Center
Mon 12:35:00 PM 42.5933 -92.4175 341° North  Level Estimated
Mon 12:36:33 PM 42.8564 -92.5369 341° North 147 169 4,500  Level Minneapolis Center
Mon 12:37:35 PM 42.8942 -92.5550 341° North 146 168 4,500  Level Minneapolis Center
Mon 12:38:37 PM 42.9311 -92.5739 339° North 145 167 4,500 34 Level Minneapolis Center
Mon 12:40:34 PM 43.0019 -92.6106 339° North 142 163 4,600 34 Climbing Chicago Center
Mon 12:41:36 PM 43.0400 -92.6292 340° North 143 165 4,600  Level Chicago Center
Mon 12:42:45 PM 43.0875 -92.6514 341° North 144 166 4,600  Level Minneapolis Center
Mon 12:43:47 PM 43.1253 -92.6689 341° North 144 166 4,600  Level Minneapolis Center
Mon 12:45:00 PM 43.2002 -92.7080 339° North  Level FlightAware Approximate
Mon 12:46:53 PM 43.2456 -92.7289 North 144 166 4,600  Level Minneapolis Center
Mon 12:47:55 PM 43.2908 -92.7475 343° North 151 174 4,600  Level Minneapolis Center
Mon 12:50:00 PM 43.3622 -92.7824 340° North  Level FlightAware Approximate
Mon 12:51:01 PM 43.4075 -92.8044 340° North 145 167 4,600  Level Minneapolis Center
Mon 12:52:00 PM 43.6354 -92.9167 North  Level FlightAware Approximate
Mon 12:52:03 PM 43.4478 -92.8247 340° North 144 166 4,300  Level Minneapolis Center
Mon 12:54:01 PM 43.5153 -92.8661 336° Northwest 145 167 3,400 -458 Descending Chicago Center

Login

Don't have an account? Register now (free) for customized features, flight alerts, and more!